KCMX/CMX METAR and TAF weather

Enter ICAO airport designator
Station Type Date Time Source
KCMX METAR 2020/11/27 14:33 UTC NOAA

KCMX 271433Z AUTO 23005KT 3SM -SN BKN018 OVC029 M01/M04 A2990 RMK AO2 SNE15B20 P0000 T10061039


Station Type Date Time Source
KCMX Decoded METAR 2020/11/27 14:33 UTC NOAA

HANCOCK HOUGHTON CTY. MEMO, MI, United States (KCMX) 47-10N 088-29W 326M
Nov 27, 2020 - 09:33 AM EST / 2020.11.27 1433 UTC
Wind: from the SW (230 degrees) at 6 MPH (5 KT):0
Visibility: 3 mile(s):0
Sky conditions: overcast
Weather: light snow
Precipitation last hour: A trace
Temperature: 30.9 F (-0.6 C)
Windchill: 24 F (-4 C):1
Dew Point: 25.0 F (-3.9 C)
Relative Humidity: 78%
Pressure (altimeter): 29.9 in. Hg (1012 hPa)
ob: KCMX 271433Z AUTO 23005KT 3SM -SN BKN018 OVC029 M01/M04 A2990 RMK AO2 SNE15B20 P0000 T10061039
cycle: 14

Station Type Date Time Source
KCMX TAF 2020/11/27 14:15 UTC NOAA

TAF
AMD KCMX 271413Z 2714/2812 22011KT P6SM VCSH BKN030
FM271600 28013G21KT P6SM BKN014
FM272000 28015KT P6SM BKN020
FM280000 27014G23KT P6SM BKN027

Example: see airport list